Carbonita, Brazil
Current Conditions -  °F | °C
As of 3:00 PM on Friday 19 Dec 2014 (Local Time) from SBMK Reporting Station
Scattered Clouds Scattered Clouds  
Wind Chill: 90°   Ceiling: Unl
Heat Index: 90°   Visibility: 6mi
Dew Point: 59°   Wind: 5mph
Humidity: 36%   Direction: NA
Pressure: 29.85"   Gusts: NA
Location:  17.53°S, 43.01°W
Report Text: SBMK 191700Z VRB04KT 9999 SCT045 32/15 Q1011
Loading
Personal Weather Stations






























Interactive Weather Map New forecast layout! Learn more

10-Day Weather Forecast

Advertisements
Track Severe Weather on mobile